VAM | Vabird-VBD

Virtual Vabird! Aerolínea Virtual de habla hispana, desde 2011




 INFORMACIÓN METAR y TAF
METAR FOR EINN
ADDS - METARS form results

(1942 UTC 12 June 2021)
Data provider http://aviationweather.gov/metar/data/
 
METAR text: EINN 121930Z 28007KT 9999 BKN033 17/12 Q1026 NOSIG
Conditions at: EINN (SHANNON AIRPORT , IE) observed 1930 UTC 12 June 2021
Temperature: 17.0°C (63°F)
Dewpoint: 12.0°C (54°F) [RH = 72%]
Pressure (altimeter): 30.30 inches Hg (1026.0 mb)
Winds: from the W (280 degrees) at 8 MPH (7 knots; 3.6 m/s)
Visibility: 6 or more miles (10+ km)
Ceiling: 3300 feet AGL
Clouds: broken clouds at 3300 feet AGL
Weather: no significant weather observed at this time

METAR text: EINN 121900Z 28007KT 9999 BKN035 18/13 Q1026 NOSIG
Conditions at: EINN (SHANNON AIRPORT , IE) observed 1900 UTC 12 June 2021
Temperature: 18.0°C (64°F)
Dewpoint: 13.0°C (55°F) [RH = 73%]
Pressure (altimeter): 30.30 inches Hg (1026.0 mb)
Winds: from the W (280 degrees) at 8 MPH (7 knots; 3.6 m/s)
Visibility: 6 or more miles (10+ km)
Ceiling: 3500 feet AGL
Clouds: broken clouds at 3500 feet AGL
Weather: no significant weather observed at this time

Forecast for: EINN (SHANNON AIRPORT , IE)
Text: TAF EINN 121700Z 1218/1318 26010KT 9999 BKN040
Forecast period: 1800 to 2000 UTC 12 June 2021
Forecast type: FROM: standard forecast or significant change
Winds: from the W (260 degrees) at 12 MPH (10 knots; 5.1 m/s)
Visibility: 6 or more miles (10+ km)
Ceiling: 4000 feet AGL
Clouds: broken clouds at 4000 feet AGL
Weather: no significant weather forecast for this period
Text: BECMG 1220/1222 VRB03KT
Forecast period: 2000 UTC 12 June 2021 to 0700 UTC 13 June 2021
Forecast type: BECOMING: Conditions expected to become as follows by 2200 UTC 12 June 2021
Winds: variable direction winds at 3 MPH (3 knots; 1.5 m/s)
Visibility: 6 or more miles (10+ km)
Ceiling: 4000 feet AGL
Clouds: broken clouds at 4000 feet AGL
Weather: no significant weather forecast for this period
Text: PROB40
Forecast period: 0000 to 0700 UTC 13 June 2021
Forecast type: TEMPORARY: The following changes expected for less than half the time period
Visibility: 1.86 miles (2.99 km)
Ceiling: 400 feet AGL
Clouds: broken clouds at 400 feet AGL
Weather: BR  (mist)
Text: TEMPO 1300/1307 3000 BR BKN004
Forecast period: 0700 to 1800 UTC 13 June 2021
Forecast type: BECOMING: Conditions expected to become as follows by 0900 UTC 13 June 2021
Winds: from the W (260 degrees) at 12 MPH (10 knots; 5.1 m/s)
Visibility: 6 or more miles (10+ km)
Ceiling: 4000 feet AGL
Clouds: broken clouds at 4000 feet AGL
Weather: no significant weather forecast for this period

 MAPA DE AEROPUERTO

 INFORMACIÓN DE PISTA